RJTL(METAR)
04/28 17:00
METAR RJTL 280800Z 08008KT 9999 FEW040 18/09 Q1004 RMK 1CU040 A2968=
戻る
トップページへ戻る
IMOC Co,.Ltd.